Abril 2004

Fecha / Hora Temperatura (*F) Dew Point (*F) Humedad Relativa (%)
4/1/2004 0:25 52.49 46.64 80.4
4/1/2004 0:55 52.49 47.1 81.8
4/1/2004 1:25 52.49 47.54 83.2
4/1/2004 1:55 51.79 48.74 89.3
4/1/2004 2:25 51.08 49.78 95.3
4/1/2004 2:55 51.08 49.9 95.7
4/1/2004 3:25 51.08 49.7 95
4/1/2004 3:55 51.79 50.28 94.6
4/1/2004 4:25 51.79 49.36 91.4
4/1/2004 4:55 51.08 48.32 90.2
4/1/2004 5:25 51.08 47.8 88.5
4/1/2004 5:55 51.08 47.42 87.2
4/1/2004 6:25 51.79 47.42 85
4/1/2004 6:55 51.79 48.1 87.2
4/1/2004 7:25 52.49 46.78 80.8
4/1/2004 7:55 53.19 46.52 78
4/1/2004 8:25 54.58 46.16 73.1
4/1/2004 8:55 57.35 45.74 65.1
4/1/2004 9:25 55.97 44.64 65.6
4/1/2004 9:55 57.35 44.46 62
4/1/2004 10:25 61.48 41.9 48.5
4/1/2004 10:55 60.8 42.88 51.6
4/1/2004 11:25 62.17 42.26 48
4/1/2004 11:55 62.17 44.7 52.7
4/1/2004 12:25 62.17 43.64 50.6
4/1/2004 12:55 63.54 42.98 47
4/1/2004 13:25 63.54 40.9 43.4
4/1/2004 13:55 63.54 40.6 42.9
4/1/2004 14:25 62.85 41.44 45.4
4/1/2004 14:55 60.8 42.88 51.6
4/1/2004 15:25 59.42 43.42 55.3
4/1/2004 15:55 59.42 40.02 48.5
4/1/2004 16:25 60.11 41.18 49.5
4/1/2004 16:55 58.73 43 55.8
4/1/2004 17:25 56.66 40.56 54.7
4/1/2004 17:55 54.58 43.32 65.6
4/1/2004 18:25 53.19 43.72 70.1
4/1/2004 18:55 52.49 45.02 75.6
4/1/2004 19:25 51.79 45.16 78
4/1/2004 19:55 51.79 45.8 79.9
4/1/2004 20:25 51.79 45.96 80.4
4/1/2004 20:55 51.79 46.26 81.3
4/1/2004 21:25 51.08 47.14 86.3
4/1/2004 21:55 51.08 45.28 80.4
4/1/2004 22:25 51.08 45.86 82.2
4/1/2004 22:55 51.08 45.4 80.8
4/1/2004 23:25 51.08 45.4 80.8
4/1/2004 23:55 51.08 46.3 83.6
4/2/2004 0:25 51.08 45.56 81.3
4/2/2004 0:55 50.38 46.84 87.6
4/2/2004 1:25 50.38 46.44 86.3
4/2/2004 1:55 50.38 45.9 84.5
4/2/2004 2:25 49.67 47.04 90.6
4/2/2004 2:55 50.38 47.86 91
4/2/2004 3:25 50.38 47.62 90.2
4/2/2004 3:55 49.67 48.3 95
4/2/2004 4:25 49.67 46.78 89.7
4/2/2004 4:55 49.67 45.88 86.7
4/2/2004 5:25 48.25 44.24 85.9
4/2/2004 5:55 48.25 44.08 85.4
4/2/2004 6:25 48.96 44.22 83.6
4/2/2004 6:55 49.67 43.44 79
4/2/2004 7:25 49.67 43.44 79
4/2/2004 7:55 48.96 45.96 89.3
4/2/2004 8:25 50.38 44.88 81.3
4/2/2004 8:55 51.08 44.14 77
4/2/2004 9:25 51.79 44.16 75.1
4/2/2004 9:55 51.08 47.42 87.2
4/2/2004 10:25 49.67 47.74 93
4/2/2004 10:55 49.67 47.62 92.6
4/2/2004 11:25 50.38 47.48 89.7
4/2/2004 11:55 50.38 48.44 93
4/2/2004 12:25 51.08 48.16 89.7
4/2/2004 12:55 51.08 47.92 88.9
4/2/2004 13:25 51.79 46.7 82.7
4/2/2004 13:55 52.49 48.24 85.4
4/2/2004 14:25 53.19 45.16 74.1
4/2/2004 14:55 53.19 44.44 72.1
4/2/2004 15:25 53.19 43.72 70.1
4/2/2004 15:55 53.19 45.34 74.6
4/2/2004 16:25 51.79 45.96 80.4
4/2/2004 16:55 50.38 47.12 88.5
4/2/2004 17:25 51.08 46.74 85
4/2/2004 17:55 51.08 44.94 79.4
4/2/2004 18:25 51.08 46.18 83.2
4/2/2004 18:55 50.38 45.76 84.1
4/2/2004 19:25 50.38 46.72 87.2
4/2/2004 19:55 49.67 45.76 86.3
4/2/2004 20:25 49.67 46.42 88.5
4/2/2004 20:55 48.96 46.22 90.2
4/2/2004 21:25 48.96 46.56 91.4
4/2/2004 21:55 48.25 45.98 91.8
4/2/2004 22:25 48.25 46.1 92.2
4/2/2004 22:55 47.53 45.62 93
4/2/2004 23:25 46.82 45.12 93.8
4/2/2004 23:55 46.82 45.24 94.2
4/3/2004 0:25 46.82 45.36 94.6
4/3/2004 0:55 46.82 45.46 95
4/3/2004 1:25 45.38 43.92 94.6
4/3/2004 1:55 45.38 44.12 95.3
4/3/2004 2:25 44.65 43.4 95.3
4/3/2004 2:55 45.38 44.44 96.5
4/3/2004 3:25 45.38 44.34 96.1
4/3/2004 3:55 45.38 44.34 96.1
4/3/2004 4:25 46.1 45.06 96.1
4/3/2004 4:55 45.38 44.44 96.5
4/3/2004 5:25 45.38 44.52 96.8
4/3/2004 5:55 45.38 44.44 96.5
4/3/2004 6:25 46.82 45.96 96.8
4/3/2004 6:55 49.67 47.62 92.6
4/3/2004 7:25 51.08 46.74 85
4/3/2004 7:55 53.19 46.34 77.5
4/3/2004 8:25 52.49 46.48 79.9
4/3/2004 8:55 55.28 45.34 69.1
4/3/2004 9:25 55.28 43.98 65.6
4/3/2004 9:55 57.35 43.78 60.4
4/3/2004 10:25 60.11 44.52 56.3
4/3/2004 10:55 59.42 44.62 57.9
4/3/2004 11:25 60.11 43.28 53.7
4/3/2004 11:55 59.42 43.12 54.7
4/3/2004 12:25 60.11 42.8 52.7
4/3/2004 12:55 63.54 42.64 46.4
4/3/2004 13:25 63.54 42.64 46.4
4/3/2004 13:55 60.11 46.16 59.9
4/3/2004 14:25 59.42 46.42 62
4/3/2004 14:55 59.42 47.92 65.6
4/3/2004 15:25 59.42 48.52 67.1
4/3/2004 15:55 59.42 47.3 64.1
4/3/2004 16:25 58.73 46.86 64.6
4/3/2004 16:55 58.73 46.86 64.6
4/3/2004 17:25 57.35 47.14 68.6
4/3/2004 17:55 56.66 47.04 70.1
4/3/2004 18:25 56.66 47.46 71.2
4/3/2004 18:55 55.28 47 73.6
4/3/2004 19:25 55.28 47.88 76.1
4/3/2004 19:55 55.28 47.18 74.1
4/3/2004 20:25 53.89 46.02 74.6
4/3/2004 20:55 53.89 46.02 74.6
4/3/2004 21:25 53.19 45.86 76.1
4/3/2004 21:55 52.49 45.84 78
4/3/2004 22:25 51.08 45.28 80.4
4/3/2004 22:55 50.38 45.16 82.2
4/3/2004 23:25 51.08 46.18 83.2
4/3/2004 23:55 51.08 46.58 84.5
4/4/2004 0:25 50.38 46.18 85.4
4/4/2004 0:55 49.67 46.26 88
4/4/2004 1:25 48.96 45.72 88.5
4/4/2004 1:55 48.25 45.64 90.6
4/4/2004 2:25 48.96 45.72 88.5
4/4/2004 2:55 47.53 44.66 89.7
4/4/2004 3:25 46.82 43.96 89.7
4/4/2004 3:55 46.1 43.62 91
4/4/2004 4:25 46.1 43.86 91.8
4/4/2004 4:55 45.38 42.9 91
4/4/2004 5:25 44.65 42.3 91.4
4/4/2004 5:55 44.65 42.76 93
4/4/2004 6:25 46.82 44.68 92.2
4/4/2004 6:55 53.89 48.6 82.2
4/4/2004 7:25 54.58 47.4 76.6
4/4/2004 7:55 58.04 47.78 68.6
4/4/2004 8:25 58.04 47.98 69.1
4/4/2004 8:55 60.11 48.96 66.6
4/4/2004 9:25 62.17 48.3 60.4
4/4/2004 9:55 62.85 46.6 55.3
4/4/2004 10:25 63.54 46.22 53.2
4/4/2004 10:55 64.91 45.9 50.1
4/4/2004 11:25 63.54 45.66 52.1
4/4/2004 11:55 64.91 44.78 48
4/4/2004 12:25 66.96 43.02 41.8
4/4/2004 12:55 67.65 46.38 46.4
4/4/2004 13:25 67.65 45.52 44.9
4/4/2004 13:55 64.91 45.9 50.1
4/4/2004 14:25 65.59 43.94 45.4
4/4/2004 14:55 64.22 44.96 49.5
4/4/2004 15:25 58.04 54.92 89.3
4/4/2004 15:55 56.66 54.66 93
4/4/2004 16:25 56.66 54.18 91.4
4/4/2004 16:55 57.35 55 91.8
4/4/2004 17:25 57.35 54.64 90.6
4/4/2004 17:55 56.66 54.66 93
4/4/2004 18:25 55.28 53.4 93.4
4/4/2004 18:55 54.58 52.6 93
4/4/2004 19:25 53.89 51.56 91.8
4/4/2004 19:55 53.19 52.1 96.1
4/4/2004 20:25 52.49 51.52 96.5
4/4/2004 20:55 52.49 51.3 95.7
4/4/2004 21:25 51.79 50.82 96.5
4/4/2004 21:55 51.08 50.2 96.8
4/4/2004 22:25 51.08 50.2 96.8
4/4/2004 22:55 50.38 49.32 96.1
4/4/2004 23:25 50.38 49.42 96.5
4/4/2004 23:55 49.67 48.72 96.5
4/5/2004 0:25 49.67 48.92 97.2
4/5/2004 0:55 48.96 48.1 96.8
4/5/2004 1:25 48.25 47.38 96.8
4/5/2004 1:55 48.25 47.6 97.6
4/5/2004 2:25 48.25 47.6 97.6
4/5/2004 2:55 47.53 46.9 97.6
4/5/2004 3:25 46.82 46.06 97.2
4/5/2004 3:55 46.82 46.18 97.6
4/5/2004 4:25 46.82 46.26 97.9
4/5/2004 4:55 46.82 46.18 97.6
4/5/2004 5:25 46.1 45.36 97.2
4/5/2004 5:55 45.38 44.74 97.6
4/5/2004 6:25 47.53 47.08 98.3
4/5/2004 6:55 53.19 52.1 96.1
4/5/2004 7:25 55.97 50.5 81.8
4/5/2004 7:55 59.42 50.3 71.7
4/5/2004 8:25 60.8 51.42 71.2
4/5/2004 8:55 62.85 51.18 65.6
4/5/2004 9:25 64.91 47.48 53.2
4/5/2004 9:55 66.96 43.02 41.8
4/5/2004 10:25 69.02 43.58 39.8
4/5/2004 10:55 69.71 40.72 34.8
4/5/2004 11:25 71.08 40.78 33.3
4/5/2004 11:55 72.46 42.38 33.8
4/5/2004 12:25 74.53 41.86 30.9
4/5/2004 12:55 75.92 41.86 29.5
4/5/2004 13:25 74.53 40.22 29
4/5/2004 13:55 75.22 42.46 30.9
4/5/2004 14:25 75.22 44.8 33.8
4/5/2004 14:55 73.84 45.08 35.8
4/5/2004 15:25 72.46 44.24 36.3
4/5/2004 15:55 71.77 44.68 37.8
4/5/2004 16:25 71.08 44.08 37.8
4/5/2004 16:55 69.71 43.86 39.3
4/5/2004 17:25 67.65 42.68 40.3
4/5/2004 17:55 66.28 43.08 42.9
4/5/2004 18:25 64.22 47.88 55.3
4/5/2004 18:55 62.17 48.58 61
4/5/2004 19:25 60.8 49.62 66.6
4/5/2004 19:55 59.42 49.68 70.1
4/5/2004 20:25 58.73 49.96 72.6
4/5/2004 20:55 58.73 49.96 72.6
4/5/2004 21:25 58.04 50.22 75.1
4/5/2004 21:55 57.35 50.74 78.5
4/5/2004 22:25 56.66 50.7 80.4
4/5/2004 22:55 55.97 50.34 81.3
4/5/2004 23:25 55.28 49.82 81.8
4/5/2004 23:55 54.58 49.6 83.2
4/6/2004 0:25 53.89 49.32 84.5
4/6/2004 0:55 53.19 49.6 87.6
4/6/2004 1:25 52.49 48.92 87.6
4/6/2004 1:55 52.49 49.2 88.5
4/6/2004 2:25 51.79 48.74 89.3
4/6/2004 2:55 51.08 48.16 89.7
4/6/2004 3:25 50.38 47.74 90.6
4/6/2004 3:55 50.38 48.08 91.8
4/6/2004 4:25 49.67 47.38 91.8
4/6/2004 4:55 49.67 47.38 91.8
4/6/2004 5:25 48.96 46.92 92.6
4/6/2004 5:55 48.96 47.14 93.4
4/6/2004 6:25 51.08 49.48 94.2
4/6/2004 6:55 55.28 51.14 85.9
4/6/2004 7:25 56.66 50.24 79
4/6/2004 7:55 58.73 50.7 74.6
4/6/2004 8:25 60.11 51.1 72.1
4/6/2004 8:55 61.48 51.08 68.6
4/6/2004 9:25 62.17 50.52 65.6
4/6/2004 9:55 64.22 49.8 59.4
4/6/2004 10:25 66.28 49 53.7
4/6/2004 10:55 67.65 48.42 50.1
4/6/2004 11:25 69.71 47.96 45.9
4/6/2004 11:55 71.77 48.04 42.9
4/6/2004 12:25 73.84 45.46 36.3
4/6/2004 12:55 75.22 44.4 33.3
4/6/2004 13:25 75.22 45.56 34.8
4/6/2004 13:55 75.92 46.54 35.3
4/6/2004 14:25 75.92 45.02 33.3
4/6/2004 14:55 75.22 46.68 36.3
4/6/2004 15:25 75.22 47.76 37.8
4/6/2004 15:55 73.84 47.56 39.3
4/6/2004 16:25 72.46 47.64 41.3
4/6/2004 16:55 70.39 47.7 44.4
4/6/2004 17:25 68.33 48.72 49.5
4/6/2004 17:55 64.91 49 56.3
4/6/2004 18:25 62.85 48.96 60.4
4/6/2004 18:55 61.48 49 63.5
4/6/2004 19:25 60.8 49.22 65.6
4/6/2004 19:55 59.42 48.9 68.1
4/6/2004 20:25 58.73 49.62 71.7
4/6/2004 20:55 57.35 49 73.6
4/6/2004 21:25 56.66 49.06 75.6
4/6/2004 21:55 55.97 48.88 77
4/6/2004 22:25 55.97 48.88 77
4/6/2004 22:55 55.28 48.72 78.5
4/6/2004 23:25 54.58 48.68 80.4
4/6/2004 23:55 53.89 48.46 81.8
4/7/2004 0:25 53.19 48.08 82.7
4/7/2004 0:55 52.49 47.96 84.5
4/7/2004 1:25 52.49 48.52 86.3
4/7/2004 1:55 51.79 48.36 88
4/7/2004 2:25 51.08 47.54 87.6
4/7/2004 2:55 50.38 47.24 88.9
4/7/2004 3:25 50.38 47.36 89.3
4/7/2004 3:55 49.67 48.18 94.6
4/7/2004 4:25 49.67 48.72 96.5
4/7/2004 4:55 49.67 48.8 96.8
4/7/2004 5:25 48.96 47.68 95.3
4/7/2004 5:55 49.67 48.08 94.2
4/7/2004 6:25 50.38 47.98 91.4
4/7/2004 6:55 51.08 48.04 89.3
4/7/2004 7:25 51.79 47.96 86.7
4/7/2004 7:55 52.49 47.54 83.2
4/7/2004 8:25 53.89 47.84 79.9
4/7/2004 8:55 56.66 47.78 72.1
4/7/2004 9:25 58.04 47.2 67.1
4/7/2004 9:55 60.11 46.64 61
4/7/2004 10:25 62.85 44.52 51.1
4/7/2004 10:55 64.91 43.88 46.4
4/7/2004 11:25 66.28 43.68 43.9
4/7/2004 11:55 67.65 43.32 41.3
4/7/2004 12:25 69.71 42.16 36.8
4/7/2004 12:55 71.08 39.68 31.9
4/7/2004 13:25 71.77 41.78 33.8
4/7/2004 13:55 72.46 41.98 33.3
4/7/2004 14:25 72.46 43.5 35.3
4/7/2004 14:55 71.77 44.68 37.8
4/7/2004 15:25 71.08 44.42 38.3
4/7/2004 15:55 70.39 44.48 39.3
4/7/2004 16:25 68.33 45.54 43.9
4/7/2004 16:55 66.28 46.02 48
4/7/2004 17:25 64.22 45.8 51.1
4/7/2004 17:55 61.48 47 58.9
4/7/2004 18:25 59.42 47.04 63.5
4/7/2004 18:55 57.35 47.14 68.6
4/7/2004 19:25 55.97 47.3 72.6
4/7/2004 19:55 54.58 47.4 76.6
4/7/2004 20:25 53.89 47.54 79
4/7/2004 20:55 53.19 47.62 81.3
4/7/2004 21:25 53.19 47.78 81.8
4/7/2004 21:55 53.89 48.46 81.8
4/7/2004 22:25 53.19 48.64 84.5
4/7/2004 22:55 52.49 48.52 86.3
4/7/2004 23:25 52.49 48.24 85.4
4/7/2004 23:55 52.49 47.84 84.1
4/8/2004 0:25 52.49 47.68 83.6
4/8/2004 0:55 52.49 47.68 83.6
4/8/2004 1:25 52.49 47.68 83.6
4/8/2004 1:55 52.49 47.84 84.1
4/8/2004 2:25 51.79 47.14 84.1
4/8/2004 2:55 51.79 47.42 85
4/8/2004 3:25 51.79 47.28 84.5
4/8/2004 3:55 51.79 47.42 85
4/8/2004 4:25 51.08 46.86 85.4
4/8/2004 4:55 51.08 47.14 86.3
4/8/2004 5:25 50.38 46.58 86.7
4/8/2004 5:55 50.38 46.58 86.7
4/8/2004 6:25 50.38 47.48 89.7
4/8/2004 6:55 51.08 47.66 88
4/8/2004 7:25 53.89 48.6 82.2
4/8/2004 7:55 55.97 48.38 75.6
4/8/2004 8:25 58.04 48.96 71.7
4/8/2004 8:55 60.11 49.16 67.1
4/8/2004 9:25 62.17 48.8 61.5
4/8/2004 9:55 63.54 48.46 57.9
4/8/2004 10:25 65.59 46.8 50.6
4/8/2004 10:55 68.33 45.54 43.9
4/8/2004 11:25 71.08 42.66 35.8
4/8/2004 11:55 73.15 45.56 37.3
4/8/2004 12:25 73.84 45.82 36.8
4/8/2004 12:55 73.15 46.26 38.3
4/8/2004 13:25 73.84 46.18 37.3
4/8/2004 13:55 73.15 46.94 39.3
4/8/2004 14:25 72.46 46.98 40.3
4/8/2004 14:55 71.77 47.02 41.3
4/8/2004 15:25 72.46 46.66 39.8
4/8/2004 15:55 71.08 47.72 43.4
4/8/2004 16:25 70.39 48.3 45.4
4/8/2004 16:55 68.33 48.18 48.5
4/8/2004 17:25 66.96 48.84 52.1
4/8/2004 17:55 64.91 49.24 56.8
4/8/2004 18:25 62.17 49.22 62.5
4/8/2004 18:55 60.8 49.22 65.6
4/8/2004 19:25 59.42 49.5 69.6
4/8/2004 19:55 58.04 48.96 71.7
4/8/2004 20:25 57.35 49.36 74.6
4/8/2004 20:55 56.66 49.06 75.6
4/8/2004 21:25 56.66 49.22 76.1
4/8/2004 21:55 55.28 48.72 78.5
4/8/2004 22:25 54.58 48.82 80.8
4/8/2004 22:55 53.89 48.6 82.2
4/8/2004 23:25 53.89 48.76 82.7
4/8/2004 23:55 53.89 49.04 83.6
4/9/2004 0:25 53.19 48.24 83.2
4/9/2004 0:55 52.49 47.96 84.5
4/9/2004 1:25 52.49 47.96 84.5
4/9/2004 1:55 51.79 47.84 86.3
4/9/2004 2:25 51.79 48.1 87.2
4/9/2004 2:55 51.08 47.54 87.6
4/9/2004 3:25 51.08 47.66 88
4/9/2004 3:55 50.38 47.36 89.3
4/9/2004 4:25 50.38 47.48 89.7
4/9/2004 4:55 49.67 47.04 90.6
4/9/2004 5:25 49.67 47.04 90.6
4/9/2004 5:55 51.08 48.66 91.4
4/9/2004 6:25 51.08 48.66 91.4
4/9/2004 6:55 51.79 48.74 89.3
4/9/2004 7:25 52.49 49.04 88
4/9/2004 7:55 55.28 49.02 79.4
4/9/2004 8:25 57.35 49.72 75.6
4/9/2004 8:55 60.11 50.16 69.6
4/9/2004 9:25 61.48 49.46 64.6
4/9/2004 9:55 62.85 47.54 57.3
4/9/2004 10:25 65.59 47.88 52.7
4/9/2004 10:55 68.33 47.62 47.5
4/9/2004 11:25 70.39 48 44.9
4/9/2004 11:55 72.46 46.98 40.3
4/9/2004 12:25 74.53 46.06 36.3
4/9/2004 12:55 75.92 45.8 34.3
4/9/2004 13:25 75.92 46.18 34.8
4/9/2004 13:55 75.92 46.54 35.3
4/9/2004 14:25 75.22 47.04 36.8
4/9/2004 14:55 75.22 47.04 36.8
4/9/2004 15:25 73.84 47.56 39.3
4/9/2004 15:55 73.15 47.6 40.3
4/9/2004 16:25 71.77 47.34 41.8
4/9/2004 16:55 69.71 47.08 44.4
4/9/2004 17:25 68.33 47.62 47.5
4/9/2004 17:55 66.28 48.2 52.1
4/9/2004 18:25 63.54 48.46 57.9
4/9/2004 18:55 62.17 49.22 62.5
4/9/2004 19:25 60.8 49.22 65.6
4/9/2004 19:55 60.11 49.36 67.6
4/9/2004 20:25 59.42 49.1 68.6
4/9/2004 20:55 58.73 48.84 69.6
4/9/2004 21:25 58.73 49.02 70.1
4/9/2004 21:55 58.04 48.78 71.2
4/9/2004 22:25 57.35 48.82 73.1
4/9/2004 22:55 56.66 49.22 76.1
4/9/2004 23:25 55.97 48.88 77
4/9/2004 23:55 54.58 48.34 79.4
4/10/2004 0:25 54.58 48.68 80.4
4/10/2004 0:55 54.58 48.82 80.8
4/10/2004 1:25 54.58 48.82 80.8
4/10/2004 1:55 53.89 48.3 81.3
4/10/2004 2:25 53.19 48.24 83.2
4/10/2004 2:55 52.49 47.54 83.2
4/10/2004 3:25 51.79 47.28 84.5
4/10/2004 3:55 51.79 47.56 85.4
4/10/2004 4:25 51.79 47.7 85.9
4/10/2004 4:55 51.79 48.1 87.2
4/10/2004 5:25 50.38 46.18 85.4
4/10/2004 5:55 51.08 47.14 86.3
4/10/2004 6:25 53.19 48.8 85
4/10/2004 6:55 58.04 50.56 76.1
4/10/2004 7:25 60.11 49.96 69.1
4/10/2004 7:55 60.11 48.96 66.6
4/10/2004 8:25 62.17 49.44 63
4/10/2004 8:55 64.22 49.1 57.9
4/10/2004 9:25 67.65 48.42 50.1
4/10/2004 9:55 69.02 47.96 47
4/10/2004 10:25 71.77 48.64 43.9
4/10/2004 10:55 73.84 47.56 39.3
4/10/2004 11:25 74.53 46.78 37.3
4/10/2004 11:55 76.62 47.16 35.3
4/10/2004 12:25 78.01 46.52 32.9
4/10/2004 12:55 78.71 46.32 31.9
4/10/2004 13:25 78.71 46.72 32.4
4/10/2004 13:55 79.41 45.3 30
4/10/2004 14:25 78.01 47.62 34.3
4/10/2004 14:55 77.31 48.52 36.3
4/10/2004 15:25 75.22 48.44 38.8
4/10/2004 15:55 73.15 50.2 44.4
4/10/2004 16:25 72.46 51.38 47.5
4/10/2004 16:55 70.39 51.74 51.6
4/10/2004 17:25 69.02 52.34 55.3
4/10/2004 17:55 66.28 52.66 61.5
4/10/2004 18:25 64.22 52.06 64.6
4/10/2004 18:55 62.17 52.12 69.6
4/10/2004 19:25 60.8 52.14 73.1
4/10/2004 19:55 59.42 51.9 76.1
4/10/2004 20:25 58.73 51.9 78
4/10/2004 20:55 58.04 51.88 79.9
4/10/2004 21:25 57.35 51.98 82.2
4/10/2004 21:55 56.66 51.3 82.2
4/10/2004 22:25 55.97 50.8 82.7
4/10/2004 22:55 55.28 50.4 83.6
4/10/2004 23:25 55.28 50.86 85
4/10/2004 23:55 54.58 50.7 86.7
4/11/2004 0:25 53.89 49.9 86.3
4/11/2004 0:55 53.19 49.88 88.5
4/11/2004 1:25 53.19 50.24 89.7
4/11/2004 1:55 52.49 49.7 90.2
4/11/2004 2:25 52.49 49.7 90.2
4/11/2004 2:55 51.79 48.86 89.7
4/11/2004 3:25 51.08 48.56 91
4/11/2004 3:55 51.08 48.44 90.6
4/11/2004 4:25 50.38 48.08 91.8
4/11/2004 4:55 49.67 47.38 91.8
4/11/2004 5:25 48.96 47.14 93.4
4/11/2004 5:55 48.96 47.14 93.4
4/11/2004 6:25 51.08 49.02 92.6
4/11/2004 6:55 55.97 50.96 83.2
4/11/2004 7:25 66.96 25.12 20.4
4/11/2004 7:55 69.71 23.7 17.5
4/11/2004 8:25 71.08 20.54 14.6
4/11/2004 8:55 72.46 21.14 14.3
4/11/2004 9:25 73.15 16.22 11.3
4/11/2004 9:55 73.84 18.9 12.4
4/11/2004 10:25 75.22 22.66 13.9
4/11/2004 10:55 75.22 19.2 12
4/11/2004 11:25 74.53 23.28 14.6
4/11/2004 11:55 75.92 25.64 15.4
4/11/2004 12:25 75.22 25.72 15.8
4/11/2004 12:55 75.92 22.52 13.5
4/11/2004 13:25 75.22 24.46 15
4/11/2004 13:55 74.53 24.54 15.4
4/11/2004 14:25 74.53 24.54 15.4
4/11/2004 14:55 74.53 23.92 15
4/11/2004 15:25 73.84 23.98 15.4
4/11/2004 15:55 73.84 22.72 14.6
4/11/2004 16:25 72.46 22.88 15.4
4/11/2004 16:55 71.08 20.54 14.6
4/11/2004 17:25 70.39 19.98 14.6
4/11/2004 17:55 69.71 19.44 14.6
4/11/2004 18:25 69.02 18.42 14.3
4/11/2004 18:55 69.02 17.08 13.5
4/11/2004 19:25 68.33 18.98 15
4/11/2004 19:55 68.33 19.58 15.4
4/11/2004 20:25 67.65 19.04 15.4
4/11/2004 20:55 68.33 15.84 13.1
4/11/2004 21:25 68.33 13.86 12
4/11/2004 21:55 67.65 14.06 12.4
4/11/2004 22:25 66.96 13.52 12.4
4/11/2004 22:55 65.59 14.38 13.5
4/11/2004 23:25 64.91 15.62 14.6
4/11/2004 23:55 63.54 16.34 15.8
4/12/2004 0:25 63.54 15.14 15
4/12/2004 0:55 65.59 13 12.7
4/12/2004 1:25 66.28 11.48 11.6
4/12/2004 1:55 66.28 10.9 11.3
4/12/2004 2:25 62.85 15.2 15.4
4/12/2004 2:55 62.85 13.5 14.3
4/12/2004 3:25 62.17 13.44 14.6
4/12/2004 3:55 64.22 11.38 12.4
4/12/2004 4:25 63.54 12.08 13.1
4/12/2004 4:55 61.48 14.68 15.8
4/12/2004 5:25 58.04 17.26 20
4/12/2004 5:55 58.04 18.72 21.3
4/12/2004 6:25 64.91 14.5 13.9
4/12/2004 6:55 69.02 13.62 11.6
4/12/2004 7:25 71.08 12.3 10.2
4/12/2004 7:55 71.77 12.82 10.2
4/12/2004 8:25 73.15 12.98 9.8
4/12/2004 8:55 74.53 13.32 9.5
4/12/2004 9:25 75.92 13.38 9.1
4/12/2004 9:55 75.22 15.46 10.2
4/12/2004 10:25 77.31 17.04 10.2
4/12/2004 10:55 76.62 13.92 9.1
4/12/2004 11:25 78.71 15.48 9.1
4/12/2004 11:55 79.41 13.36 8.1
4/12/2004 12:25 78.01 14.96 9.1
4/12/2004 12:55 82.24 13.7 7.5
4/12/2004 13:25 80.12 8.96 6.5
4/12/2004 13:55 82.24 10.48 6.5
4/12/2004 14:25 80.12 10.28 6.9
4/12/2004 14:55 80.82 9.46 6.5
4/12/2004 15:25 81.53 8.92 6.2
4/12/2004 15:55 81.53 11.32 6.9
4/12/2004 16:25 80.12 11.24 7.2
4/12/2004 16:55 79.41 9.76 6.9
4/12/2004 17:25 78.01 9.7 7.2
4/12/2004 17:55 75.22 21.26 13.1
4/12/2004 18:25 73.15 21.02 13.9
4/12/2004 18:55 71.08 18 13.1
4/12/2004 19:25 69.71 20.68 15.4
4/12/2004 19:55 69.02 19.52 15
4/12/2004 20:25 67.65 20.8 16.6
4/12/2004 20:55 66.28 22.48 18.7
4/12/2004 21:25 64.91 22.94 20
4/12/2004 21:55 64.91 22.34 19.5
4/12/2004 22:25 64.22 20.8 18.7
4/12/2004 22:55 64.22 20.3 18.3
4/12/2004 23:25 64.22 20.8 18.7
4/12/2004 23:55 63.54 20.24 18.7
4/13/2004 0:25 61.48 22.46 22.1
4/13/2004 0:55 58.73 22.88 24.8
4/13/2004 1:25 57.35 22.54 25.7
4/13/2004 1:55 56.66 23.2 27.1
4/13/2004 2:25 56.66 23.64 27.6
4/13/2004 2:55 55.97 24.22 29
4/13/2004 3:25 55.28 24.74 30.4
4/13/2004 3:55 53.19 25.1 33.3
4/13/2004 4:25 53.89 25.06 32.4
4/13/2004 4:55 54.58 25.3 31.9
4/13/2004 5:25 53.89 26.08 33.8
4/13/2004 5:55 53.89 26.78 34.8
4/13/2004 6:25 56.66 27.12 31.9
4/13/2004 6:55 63.54 28.28 26.2
4/13/2004 7:25 69.02 27.28 20.8
4/13/2004 7:55 71.77 22.34 15.4
4/13/2004 8:25 75.22 19.98 12.4
4/13/2004 8:55 78.01 13.42 8.5
4/13/2004 9:25 79.41 11.64 7.5
4/13/2004 9:55 80.12 13.04 7.8
4/13/2004 10:25 81.53 14.94 8.1
4/13/2004 10:55 82.24 14.6 7.8
4/13/2004 11:25 82.24 16.56 8.5
4/13/2004 11:55 83.67 16.52 8.1
4/13/2004 12:25 85.1 16.7 7.8
4/13/2004 12:55 88.74 16.54 6.9
4/13/2004 13:25 86.55 13.6 6.5
4/13/2004 13:55 87.28 16.46 7.2
4/13/2004 14:25 86.55 13.6 6.5
4/13/2004 14:55 85.83 10.9 5.9
4/13/2004 15:25 85.83 10.9 5.9
4/13/2004 15:55 84.38 9.88 5.9
4/13/2004 16:25 82.95 11 6.5
4/13/2004 16:55 80.82 7.32 5.9
4/13/2004 17:25 79.41 20.2 10.9
4/13/2004 17:55 77.31 20.04 11.6
4/13/2004 18:25 75.22 21.26 13.1
4/13/2004 18:55 73.15 19.64 13.1
4/13/2004 19:25 71.08 18.7 13.5
4/13/2004 19:55 69.02 21.9 16.6
4/13/2004 20:25 67.65 25.2 20
4/13/2004 20:55 66.28 26.02 21.7
4/13/2004 21:25 64.91 26.28 23
4/13/2004 21:55 63.54 26.06 23.9
4/13/2004 22:25 62.17 26.26 25.3
4/13/2004 22:55 60.8 26.76 27.1
4/13/2004 23:25 59.42 26.02 27.6
4/13/2004 23:55 58.04 25.26 28.1
4/14/2004 0:25 55.97 25.74 30.9
4/14/2004 0:55 54.58 25.66 32.4
4/14/2004 1:25 54.58 26.04 32.9
4/14/2004 1:55 53.89 25.72 33.3
4/14/2004 2:25 53.89 24.32 31.4
4/14/2004 2:55 53.19 24.82 32.9
4/14/2004 3:25 51.79 25.6 35.8
4/14/2004 3:55 51.08 26.6 38.3
4/14/2004 4:25 50.38 27.8 41.3
4/14/2004 4:55 49.67 28.64 43.9
4/14/2004 5:25 48.96 28.8 45.4
4/14/2004 5:55 49.67 28.36 43.4
4/14/2004 6:25 53.19 26.84 35.8
4/14/2004 6:55 62.85 26.84 25.3
4/14/2004 7:25 64.22 25.7 23
4/14/2004 7:55 64.91 23.88 20.8
4/14/2004 8:25 66.28 23.48 19.5
4/14/2004 8:55 68.33 20.18 15.8
4/14/2004 9:25 70.39 19.98 14.6
4/14/2004 9:55 72.46 18.36 12.7
4/14/2004 10:25 75.92 16.66 10.5
4/14/2004 10:55 77.31 16.12 9.8
4/14/2004 11:25 78.71 17.18 9.8
4/14/2004 11:55 81.53 20.26 10.2
4/14/2004 12:25 81.53 23.28 11.6
4/14/2004 12:55 83.67 24.94 11.6
4/14/2004 13:25 82.95 24.38 11.6
4/14/2004 13:55 83.67 18.42 8.8
4/14/2004 14:25 82.95 28.74 13.9
4/14/2004 14:55 82.95 27.3 13.1
4/14/2004 15:25 82.95 22.9 10.9
4/14/2004 15:55 81.53 20.94 10.5
4/14/2004 16:25 80.82 14.4 8.1
4/14/2004 16:55 78.01 35.78 21.7
4/14/2004 17:25 75.92 42.28 30
4/14/2004 17:55 72.46 41.98 33.3
4/14/2004 18:25 70.39 40.94 34.3
4/14/2004 18:55 68.33 40.94 36.8
4/14/2004 19:25 66.96 40.08 37.3
4/14/2004 19:55 65.59 39.54 38.3
4/14/2004 20:25 64.22 39.94 40.8
4/14/2004 20:55 62.85 40 42.9
4/14/2004 21:25 62.17 40.26 44.4
4/14/2004 21:55 61.48 41.64 48
4/14/2004 22:25 58.73 37.42 44.9
4/14/2004 22:55 58.73 35.92 42.3
4/14/2004 23:25 56.66 35.82 45.4
4/14/2004 23:55 55.28 33.14 42.9
4/15/2004 0:25 54.58 31.28 40.8
4/15/2004 0:55 53.89 30.66 40.8
4/15/2004 1:25 53.89 30.34 40.3
4/15/2004 1:55 53.19 31.26 42.9
4/15/2004 2:25 52.49 29.4 40.8
4/15/2004 2:55 51.08 31.6 47
4/15/2004 3:25 49.67 31.32 49
4/15/2004 3:55 48.96 32.48 52.7
4/15/2004 4:25 48.96 32.7 53.2
4/15/2004 4:55 48.96 34.12 56.3
4/15/2004 5:25 48.96 34.34 56.8
4/15/2004 5:55 48.25 33.68 56.8
4/15/2004 6:25 51.79 35.56 53.7
4/15/2004 6:55 59.42 37.76 44.4
4/15/2004 7:25 61.48 35.22 37.3
4/15/2004 7:55 63.54 33.88 32.9
4/15/2004 8:25 66.28 29.76 25.3
4/15/2004 8:55 67.65 27.16 21.7
4/15/2004 9:25 69.71 25.28 18.7
4/15/2004 9:55 72.46 20.48 13.9
4/15/2004 10:25 74.53 19.98 12.7
4/15/2004 10:55 77.31 23.6 13.5
4/15/2004 11:25 78.71 20.5 11.3
4/15/2004 11:55 79.41 27.8 15
4/15/2004 12:25 79.41 25.26 13.5
4/15/2004 12:55 80.12 32.7 17.9
4/15/2004 13:25 80.12 36.46 20.8
4/15/2004 13:55 79.41 36.48 21.3
4/15/2004 14:25 78.71 33.16 19.1
4/15/2004 14:55 78.01 34.72 20.8
4/15/2004 15:25 77.31 34.74 21.3
4/15/2004 15:55 75.92 36.48 23.9
4/15/2004 16:25 75.22 35.88 23.9
4/15/2004 16:55 73.15 37.76 27.6
4/15/2004 17:25 71.08 37.26 29
4/15/2004 17:55 69.02 39.74 34.3
4/15/2004 18:25 66.96 41.74 39.8
4/15/2004 18:55 64.91 40.56 40.8
4/15/2004 19:25 64.22 40.86 42.3
4/15/2004 19:55 62.85 40.88 44.4
4/15/2004 20:25 62.17 41.1 45.9
4/15/2004 20:55 60.8 40.46 47
4/15/2004 21:25 60.11 40.38 48
4/15/2004 21:55 59.42 40.28 49
4/15/2004 22:25 58.04 39.28 49.5
4/15/2004 22:55 57.35 39.7 51.6
4/15/2004 23:25 56.66 38.56 50.6
4/15/2004 23:55 55.28 37.54 51.1
4/16/2004 0:25 55.28 37.78 51.6
4/16/2004 0:55 53.89 36.74 52.1
4/16/2004 1:25 53.19 36.86 53.7
4/16/2004 1:55 52.49 36.22 53.7
4/16/2004 2:25 52.49 36.22 53.7
4/16/2004 2:55 51.79 35.8 54.2
4/16/2004 3:25 51.08 35.64 55.3
4/16/2004 3:55 50.38 35.66 56.8
4/16/2004 4:25 50.38 35.88 57.3
4/16/2004 4:55 48.96 35.66 59.9
4/16/2004 5:25 48.25 35.2 60.4
4/16/2004 5:55 49.67 36.34 59.9
4/16/2004 6:25 52.49 36.22 53.7
4/16/2004 6:55 61.48 37.78 41.3
4/16/2004 7:25 61.48 34.18 35.8
4/16/2004 7:55 62.85 32.52 31.9
4/16/2004 8:25 65.59 30.5 26.7
4/16/2004 8:55 67.65 28.58 23
4/16/2004 9:25 70.39 28.42 20.8
4/16/2004 9:55 73.15 27.58 18.3
4/16/2004 10:25 75.92 27.46 16.6
4/16/2004 10:55 76.62 25.58 15
4/16/2004 11:25 77.31 27.38 15.8
4/16/2004 11:55 78.01 34.24 20.4
4/16/2004 12:25 78.01 34.72 20.8
4/16/2004 12:55 77.31 34.14 20.8
4/16/2004 13:25 76.62 31.96 19.5
4/16/2004 13:55 75.92 35.5 23
4/16/2004 14:25 75.92 33.58 21.3
4/16/2004 14:55 75.22 34.48 22.6
4/16/2004 15:25 75.92 28.74 17.5
4/16/2004 15:55 73.84 33.32 22.6
4/16/2004 16:25 71.77 35.28 26.2
4/16/2004 16:55 70.39 33.62 25.7
4/16/2004 17:25 69.71 34.82 27.6
4/16/2004 17:55 68.33 34.1 28.1
4/16/2004 18:25 66.28 30.14 25.7
4/16/2004 18:55 64.91 37.56 36.3
4/16/2004 19:25 62.85 39.64 42.3
4/16/2004 19:55 61.48 40.48 45.9
4/16/2004 20:25 60.8 40.46 47
4/16/2004 20:55 59.42 41.1 50.6
4/16/2004 21:25 58.04 41.62 54.2
4/16/2004 21:55 56.66 39.84 53.2
4/16/2004 22:25 55.97 37.12 49
4/16/2004 22:55 55.28 37.3 50.6
4/16/2004 23:25 54.58 37.68 52.7
4/16/2004 23:55 53.89 39.16 57.3
4/17/2004 0:25 52.49 41.52 66.1
4/17/2004 0:55 51.79 42.6 70.7
4/17/2004 1:25 50.38 43.62 77.5
4/17/2004 1:55 49.67 45.48 85.4
4/17/2004 2:25 49.67 46.02 87.2
4/17/2004 2:55 48.96 45.56 88
4/17/2004 3:25 48.96 46.22 90.2
4/17/2004 3:55 48.25 45.86 91.4
4/17/2004 4:25 49.67 46.66 89.3
4/17/2004 4:55 49.67 46.26 88
4/17/2004 5:25 50.38 46.44 86.3
4/17/2004 5:55 49.67 45.88 86.7
4/17/2004 6:25 50.38 45.16 82.2
4/17/2004 6:55 51.08 45.1 79.9
4/17/2004 7:25 51.79 45.16 78
4/17/2004 7:55 52.49 46.3 79.4
4/17/2004 8:25 53.19 44.44 72.1
4/17/2004 8:55 54.58 45.04 70.1
4/17/2004 9:25 56.66 44.44 63.5
4/17/2004 9:55 55.97 45.22 67.1
4/17/2004 10:25 56.66 45.3 65.6
4/17/2004 10:55 57.35 45.34 64.1
4/17/2004 11:25 58.04 44.42 60.4
4/17/2004 11:55 58.73 44.2 58.4
4/17/2004 12:25 60.8 42.88 51.6
4/17/2004 12:55 61.48 42.18 49
4/17/2004 13:25 62.85 40.28 43.4
4/17/2004 13:55 63.54 40.6 42.9
4/17/2004 14:25 64.22 39.94 40.8
4/17/2004 14:55 63.54 40.9 43.4
4/17/2004 15:25 62.85 41.74 45.9
4/17/2004 15:55 61.48 42.44 49.5
4/17/2004 16:25 60.8 43.68 53.2
4/17/2004 16:55 60.11 43.52 54.2
4/17/2004 17:25 60.8 43.14 52.1
4/17/2004 17:55 58.73 41.76 53.2
4/17/2004 18:25 57.35 38.64 49.5
4/17/2004 18:55 55.97 37.92 50.6
4/17/2004 19:25 53.89 41.4 62.5
4/17/2004 19:55 52.49 42.1 67.6
4/17/2004 20:25 51.79 42.36 70.1
4/17/2004 20:55 51.08 43.32 74.6
4/17/2004 21:25 50.38 43.62 77.5
4/17/2004 21:55 49.67 43.74 79.9
4/17/2004 22:25 48.96 43.66 81.8
4/17/2004 22:55 48.25 43.4 83.2
4/17/2004 23:25 47.53 42.7 83.2
4/17/2004 23:55 47.53 42.7 83.2
4/18/2004 0:25 46.82 42.56 85
4/18/2004 0:55 46.1 41.86 85
4/18/2004 1:25 45.38 41.54 86.3
4/18/2004 1:55 44.65 40.94 86.7
4/18/2004 2:25 46.1 42.9 88.5
4/18/2004 2:55 44.65 40.94 86.7
4/18/2004 3:25 44.65 41.48 88.5
4/18/2004 3:55 43.92 40.1 86.3
4/18/2004 4:25 43.92 40.1 86.3
4/18/2004 4:55 43.19 39.38 86.3
4/18/2004 5:25 43.19 40.04 88.5
4/18/2004 5:55 43.92 40.6 88
4/18/2004 6:25 46.1 42.24 86.3
4/18/2004 6:55 55.97 44.44 65.1
4/18/2004 7:25 55.97 43.36 62.5
4/18/2004 7:55 56.66 42.7 59.4
4/18/2004 8:25 58.04 43.32 57.9
4/18/2004 8:55 58.73 43.24 56.3
4/18/2004 9:25 60.11 42.24 51.6
4/18/2004 9:55 62.17 41.72 47
4/18/2004 10:25 63.54 41.2 43.9
4/18/2004 10:55 64.91 41.18 41.8
4/18/2004 11:25 66.96 39.74 36.8
4/18/2004 11:55 67.65 40.68 37.3
4/18/2004 12:25 68.33 40.24 35.8
4/18/2004 12:55 69.02 37.88 31.9
4/18/2004 13:25 69.71 37.26 30.4
4/18/2004 13:55 70.39 34.12 26.2
4/18/2004 14:25 71.08 30.48 22.1
4/18/2004 14:55 72.46 30.72 21.3
4/18/2004 15:25 71.77 32.98 23.9
4/18/2004 15:55 71.77 33.5 24.4
4/18/2004 16:25 70.39 34.12 26.2
4/18/2004 16:55 69.02 29.74 23
4/18/2004 17:25 68.33 33.2 27.1
4/18/2004 17:55 65.59 34.1 30.9
4/18/2004 18:25 63.54 37.04 37.3
4/18/2004 18:55 62.17 35.82 37.3
4/18/2004 19:25 61.48 33.48 34.8
4/18/2004 19:55 61.48 28.56 28.5
4/18/2004 20:25 60.11 28.62 30
4/18/2004 20:55 59.42 27.62 29.5
4/18/2004 21:25 58.04 27.54 30.9
4/18/2004 21:55 57.35 26.56 30.4
4/18/2004 22:25 55.97 27.26 32.9
4/18/2004 22:55 54.58 26.68 33.8
4/18/2004 23:25 54.58 27.4 34.8
4/18/2004 23:55 53.89 27.12 35.3
4/19/2004 0:25 53.19 25.46 33.8
4/19/2004 0:55 52.49 25.2 34.3
4/19/2004 1:25 51.79 25.26 35.3
4/19/2004 1:55 51.08 25.32 36.3
4/19/2004 2:25 50.38 25.34 37.3
4/19/2004 2:55 50.38 25.96 38.3
4/19/2004 3:25 48.96 26.52 41.3
4/19/2004 3:55 48.96 27.98 43.9
4/19/2004 4:25 51.08 34.68 53.2
4/19/2004 4:55 49.67 34.56 55.8
4/19/2004 5:25 48.25 34.78 59.4
4/19/2004 5:55 50.38 32.52 50.1
4/19/2004 6:25 53.19 31.54 43.4
4/19/2004 6:55 58.04 34.7 41.3
4/19/2004 7:25 58.73 33.76 38.8
4/19/2004 7:55 61.48 33.12 34.3
4/19/2004 8:25 64.22 29.68 27.1
4/19/2004 8:55 66.28 31.08 26.7
4/19/2004 9:25 69.02 23.14 17.5
4/19/2004 9:55 70.39 16.2 12.4
4/19/2004 10:25 71.77 13.48 10.5
4/19/2004 10:55 73.84 15.06 10.5
4/19/2004 11:25 75.92 15.08 9.8
4/19/2004 11:55 76.62 12.38 8.5
4/19/2004 12:25 78.01 11.48 7.8
4/19/2004 12:55 79.41 11.64 7.5
4/19/2004 13:25 79.41 11.64 7.5
4/19/2004 13:55 80.12 14.98 8.5
4/19/2004 14:25 79.41 15.24 8.8
4/19/2004 14:55 77.31 32.54 19.5
4/19/2004 15:25 77.31 32.54 19.5
4/19/2004 15:55 76.62 31.96 19.5
4/19/2004 16:25 75.22 33.46 21.7
4/19/2004 16:55 74.53 33.34 22.1
4/19/2004 17:25 73.15 26.5 17.5
4/19/2004 17:55 69.71 37.26 30.4
4/19/2004 18:25 67.65 25.68 20.4
4/19/2004 18:55 64.91 28.6 25.3
4/19/2004 19:25 62.85 31.32 30.4
4/19/2004 19:55 61.48 33.12 34.3
4/19/2004 20:25 60.11 36.56 41.3
4/19/2004 20:55 58.73 37.14 44.4
4/19/2004 21:25 58.04 36.22 43.9
4/19/2004 21:55 58.04 35.64 42.9
4/19/2004 22:25 57.35 35.88 44.4
4/19/2004 22:55 56.66 35.82 45.4
4/19/2004 23:25 55.97 36.86 48.5
4/19/2004 23:55 55.28 36.48 49
4/20/2004 0:25 54.58 35.58 48.5
4/20/2004 0:55 54.58 36.9 51.1
4/20/2004 1:25 54.58 37.38 52.1
4/20/2004 1:55 53.89 40.3 59.9
4/20/2004 2:25 53.19 39.44 59.4
4/20/2004 2:55 53.19 39 58.4
4/20/2004 3:25 51.79 39 61.5
4/20/2004 3:55 51.79 38.54 60.4
4/20/2004 4:25 51.79 38.8 61
4/20/2004 4:55 49.67 38.06 64.1
4/20/2004 5:25 49.67 37.82 63.5
4/20/2004 5:55 51.79 38.54 60.4
4/20/2004 6:25 53.89 38.94 56.8
4/20/2004 6:55 59.42 40.86 50.1
4/20/2004 7:25 60.8 39.3 44.9
4/20/2004 7:55 62.85 36.76 37.8
4/20/2004 8:25 66.28 34.7 30.9
4/20/2004 8:55 69.02 35.9 29.5
4/20/2004 9:25 72.46 33.56 23.9
4/20/2004 9:55 73.84 31.86 21.3
4/20/2004 10:25 75.22 29.26 18.3
4/20/2004 10:55 76.62 29.3 17.5
4/20/2004 11:25 78.01 29.14 16.6
4/20/2004 11:55 80.82 30.8 16.2
4/20/2004 12:25 82.24 25.42 12.4
4/20/2004 12:55 83.67 27.12 12.7
4/20/2004 13:25 81.53 26.92 13.5
4/20/2004 13:55 82.24 32.54 16.6
4/20/2004 14:25 82.24 33.14 17
4/20/2004 14:55 83.67 34.28 17
4/20/2004 15:25 81.53 36.62 20
4/20/2004 15:55 82.24 37.22 20
4/20/2004 16:25 80.12 38.56 22.6
4/20/2004 16:55 78.71 39.34 24.4
4/20/2004 17:25 76.62 38.9 25.7
4/20/2004 17:55 75.22 39.08 27.1
4/20/2004 18:25 72.46 41.98 33.3
4/20/2004 18:55 71.08 41.16 33.8
4/20/2004 19:25 69.02 43.58 39.8
4/20/2004 19:55 67.65 43.64 41.8
4/20/2004 20:25 66.28 43.98 44.4
4/20/2004 20:55 64.22 44.14 48
4/20/2004 21:25 63.54 43.8 48.5
4/20/2004 21:55 62.85 44.78 51.6
4/20/2004 22:25 61.48 45.04 54.7
4/20/2004 22:55 60.8 44.7 55.3
4/20/2004 23:25 60.11 44.98 57.3
4/20/2004 23:55 60.11 44.98 57.3
4/21/2004 0:25 59.42 45.06 58.9
4/21/2004 0:55 58.73 44.64 59.4
4/21/2004 1:25 58.04 44.68 61
4/21/2004 1:55 57.35 44.46 62
4/21/2004 2:25 55.97 43.78 63.5
4/21/2004 2:55 55.97 43.78 63.5
4/21/2004 3:25 55.28 44.18 66.1
4/21/2004 3:55 53.89 42.46 65.1
4/21/2004 4:25 53.89 42.66 65.6
4/21/2004 4:55 53.19 42.76 67.6
4/21/2004 5:25 52.49 42.48 68.6
4/21/2004 5:55 53.89 43.62 68.1
4/21/2004 6:25 56.66 44.44 63.5
4/21/2004 6:55 60.11 45.48 58.4
4/21/2004 7:25 62.85 44.78 51.6
4/21/2004 7:55 64.91 43.88 46.4
4/21/2004 8:25 67.65 41.02 37.8
4/21/2004 8:55 71.08 37.26 29
4/21/2004 9:25 73.15 31.74 21.7
4/21/2004 9:55 75.92 34.5 22.1
4/21/2004 10:25 77.31 33.16 20
4/21/2004 10:55 78.01 30.44 17.5
4/21/2004 11:25 80.82 30.8 16.2
4/21/2004 11:55 82.24 21.48 10.5
4/21/2004 12:25 84.38 16.18 7.8
4/21/2004 12:55 83.67 22.56 10.5
4/21/2004 13:25 83.67 24.3 11.3
4/21/2004 13:55 84.38 22.42 10.2
4/21/2004 14:25 83.67 22.56 10.5
4/21/2004 14:55 83.67 25.74 12
4/21/2004 15:25 81.53 28.82 14.6
4/21/2004 15:55 80.12 31.42 17
4/21/2004 16:25 78.01 30.98 17.9
4/21/2004 16:55 75.92 33 20.8
4/21/2004 17:25 73.84 34.3 23.5
4/21/2004 17:55 72.46 34.48 24.8
4/21/2004 18:25 70.39 34.12 26.2
4/21/2004 18:55 69.02 33.78 27.1
4/21/2004 19:25 67.65 34.3 29
4/21/2004 19:55 66.96 33.28 28.5
4/21/2004 20:25 65.59 32.96 29.5
4/21/2004 20:55 64.22 36.26 35.3
4/21/2004 21:25 63.54 37.04 37.3
4/21/2004 21:55 62.85 37.1 38.3
4/21/2004 22:25 61.48 36.84 39.8
4/21/2004 22:55 61.48 37.48 40.8
4/21/2004 23:25 60.11 37.52 42.9
4/21/2004 23:55 58.73 36.56 43.4
4/22/2004 0:25 59.42 39.48 47.5
4/22/2004 0:55 58.04 40.1 51.1
4/22/2004 1:25 56.66 42.04 57.9
4/22/2004 1:55 55.97 43.16 62
4/22/2004 2:25 55.28 43.98 65.6
4/22/2004 2:55 53.89 44.38 70.1
4/22/2004 3:25 53.19 44.44 72.1
4/22/2004 3:55 52.49 44.5 74.1
4/22/2004 4:25 52.49 44.32 73.6
4/22/2004 4:55 51.79 43.64 73.6
4/22/2004 5:25 51.79 43.64 73.6
4/22/2004 5:55 52.49 45.84 78
4/22/2004 6:25 53.19 46.04 76.6
4/22/2004 6:55 57.35 47.14 68.6
4/22/2004 7:25 57.35 44.46 62
4/22/2004 7:55 58.73 42.26 54.2
4/22/2004 8:25 61.48 41.64 48
4/22/2004 8:55 62.85 43.44 49
4/22/2004 9:25 64.91 42.14 43.4
4/22/2004 9:55 66.28 41.14 39.8
4/22/2004 10:25 68.33 41.3 37.3
4/22/2004 10:55 70.39 40.94 34.3
4/22/2004 11:25 72.46 38.88 29.5
4/22/2004 11:55 75.22 39.54 27.6
4/22/2004 12:25 76.62 38 24.8
4/22/2004 12:55 78.01 38.22 23.9
4/22/2004 13:25 79.41 39.4 23.9
4/22/2004 13:55 79.41 37.4 22.1
4/22/2004 14:25 78.71 38.82 23.9
4/22/2004 14:55 78.71 39.34 24.4
4/22/2004 15:25 78.71 39.76 24.8
4/22/2004 15:55 78.01 39.16 24.8
4/22/2004 16:25 75.92 37.4 24.8
4/22/2004 16:55 74.53 38.1 26.7
4/22/2004 17:25 72.46 39.64 30.4
4/22/2004 17:55 69.71 43.54 38.8
4/22/2004 18:25 66.96 42.08 40.3
4/22/2004 18:55 64.91 43.6 45.9
4/22/2004 19:25 64.22 45.54 50.6
4/22/2004 19:55 62.85 46.08 54.2
4/22/2004 20:25 61.48 45.56 55.8
4/22/2004 20:55 60.8 45.4 56.8
4/22/2004 21:25 60.11 44.98 57.3
4/22/2004 21:55 59.42 44.34 57.3
4/22/2004 22:25 59.42 43.64 55.8
4/22/2004 22:55 58.73 43.7 57.3
4/22/2004 23:25 57.35 43.34 59.4
4/22/2004 23:55 56.66 44.22 63
4/23/2004 0:25 55.97 44.24 64.6
4/23/2004 0:55 54.58 43.52 66.1
4/23/2004 1:25 53.89 42.84 66.1
4/23/2004 1:55 53.19 43.94 70.7
4/23/2004 2:25 52.49 43.78 72.1
4/23/2004 2:55 51.79 43.1 72.1
4/23/2004 3:25 51.08 42.6 72.6
4/23/2004 3:55 49.67 41.94 74.6
4/23/2004 4:25 49.67 42.46 76.1
4/23/2004 4:55 48.96 42.42 78
4/23/2004 5:25 49.67 43.1 78
4/23/2004 5:55 49.67 43.74 79.9
4/23/2004 6:25 52.49 44.5 74.1
4/23/2004 6:55 62.17 45.68 54.7
4/23/2004 7:25 69.71 18.96 14.3
4/23/2004 7:55 71.77 18.54 13.1
4/23/2004 8:25 73.15 19.64 13.1
4/23/2004 8:55 73.84 18.9 12.4
4/23/2004 9:25 73.84 18.14 12
4/23/2004 9:55 74.53 19.98 12.7
4/23/2004 10:25 74.53 22.1 13.9
4/23/2004 10:55 75.92 21.08 12.7
4/23/2004 11:25 76.62 21.62 12.7
4/23/2004 11:55 76.62 21.06 12.4
4/23/2004 12:25 77.31 22.9 13.1
4/23/2004 12:55 76.62 21.06 12.4
4/23/2004 13:25 76.62 20.28 12
4/23/2004 13:55 76.62 18.04 10.9
4/23/2004 14:25 77.31 17.04 10.2
4/23/2004 14:55 76.62 18.04 10.9
4/23/2004 15:25 76.62 18.04 10.9
4/23/2004 15:55 76.62 15.6 9.8
4/23/2004 16:25 75.92 12.64 8.8
4/23/2004 16:55 75.22 12.86 9.1
4/23/2004 17:25 74.53 9.74 8.1
4/23/2004 17:55 72.46 7.36 7.8
4/23/2004 18:25 71.77 14.32 10.9
4/23/2004 18:55 71.08 12.96 10.5
4/23/2004 19:25 69.71 11.9 10.5
4/23/2004 19:55 68.33 12.5 11.3
4/23/2004 20:25 66.96 13.52 12.4
4/23/2004 20:55 65.59 14.38 13.5
4/23/2004 21:25 63.54 15.74 15.4
4/23/2004 21:55 62.85 16.92 16.6
4/23/2004 22:25 62.85 18.14 17.5
4/23/2004 22:55 61.48 18.04 18.3
4/23/2004 23:25 60.8 18.48 19.1
4/23/2004 23:55 60.8 18.96 19.5
4/24/2004 0:25 60.11 19.44 20.4
4/24/2004 0:55 58.73 20.68 22.6
4/24/2004 1:25 56.66 20.24 23.9
4/24/2004 1:55 55.97 20.14 24.4
4/24/2004 2:25 54.58 20.64 26.2
4/24/2004 2:55 54.58 20.18 25.7
4/24/2004 3:25 54.58 20.64 26.2
4/24/2004 3:55 53.89 21.26 27.6
4/24/2004 4:25 53.89 20.82 27.1
4/24/2004 4:55 52.49 20.8 28.5
4/24/2004 5:25 53.19 21.82 29
4/24/2004 5:55 53.89 22.02 28.5
4/24/2004 6:25 56.66 21.96 25.7
4/24/2004 6:55 65.59 22.42 19.1
4/24/2004 7:25 68.33 20.18 15.8
4/24/2004 7:55 71.77 20.6 14.3
4/24/2004 8:25 75.22 18.42 11.6
4/24/2004 8:55 77.31 17.04 10.2
4/24/2004 9:25 78.71 18.12 10.2
4/24/2004 9:55 79.41 17 9.5
4/24/2004 10:25 79.41 17 9.5
4/24/2004 10:55 80.12 17.54 9.5
4/24/2004 11:25 82.24 18.14 9.1
4/24/2004 11:55 82.95 18.66 9.1
4/24/2004 12:25 81.53 19.32 9.8
4/24/2004 12:55 84.38 17.04 8.1
4/24/2004 13:25 83.67 19.2 9.1
4/24/2004 13:55 82.95 17.1 8.5
4/24/2004 14:25 82.95 17.1 8.5
4/24/2004 14:55 83.67 17.62 8.5
4/24/2004 15:25 83.67 17.62 8.5
4/24/2004 15:55 82.24 16.56 8.5
4/24/2004 16:25 82.95 17.9 8.8
4/24/2004 16:55 81.53 18.6 9.5
4/24/2004 17:25 80.12 19.86 10.5
4/24/2004 17:55 78.01 19.12 10.9
4/24/2004 18:25 76.62 19.5 11.6
4/24/2004 18:55 75.92 12.64 8.8
4/24/2004 19:25 75.22 12.86 9.1
4/24/2004 19:55 72.46 19.78 13.5
4/24/2004 20:25 71.08 22.98 16.2
4/24/2004 20:55 70.39 24.8 17.9
4/24/2004 21:25 69.71 25.28 18.7
4/24/2004 21:55 69.02 25.72 19.5
4/24/2004 22:25 69.02 25.24 19.1
4/24/2004 22:55 69.02 24.72 18.7
4/24/2004 23:25 67.65 22.56 17.9
4/24/2004 23:55 66.28 22.48 18.7
4/25/2004 0:25 62.85 24.56 23
4/25/2004 0:55 62.17 23.56 22.6
4/25/2004 1:25 61.48 24.32 23.9
4/25/2004 1:55 60.11 24.04 24.8
4/25/2004 2:25 59.42 23.08 24.4
4/25/2004 2:55 59.42 24.3 25.7
4/25/2004 3:25 58.04 24.04 26.7
4/25/2004 3:55 57.35 24.24 27.6
4/25/2004 4:25 57.35 23.8 27.1
4/25/2004 4:55 56.66 24.4 28.5
4/25/2004 5:25 56.66 24.82 29
4/25/2004 5:55 69.02 23.14 17.5
4/25/2004 6:25 73.84 22.72 14.6
4/25/2004 6:55 76.62 23.06 13.5
4/25/2004 7:25 77.31 22.16 12.7
4/25/2004 7:55 78.71 21.92 12
4/25/2004 8:25 80.12 22.2 11.6
4/25/2004 8:55 80.12 23 12
4/25/2004 9:25 81.53 23.28 11.6
4/25/2004 9:55 82.95 23.76 11.3
4/25/2004 10:25 83.67 23.44 10.9
4/25/2004 10:55 85.1 21.28 9.5
4/25/2004 11:25 85.1 21.28 9.5
4/25/2004 11:55 85.83 25.1 10.9
4/25/2004 12:25 84.38 21.48 9.8
4/25/2004 12:55 85.83 20.82 9.1
4/25/2004 13:25 86.55 20.58 8.8
4/25/2004 13:55 85.1 20.28 9.1
4/25/2004 14:25 85.83 18.1 8.1
4/25/2004 14:55 86.55 16.86 7.5
4/25/2004 15:25 85.1 17.58 8.1
4/25/2004 15:55 84.38 15.28 7.5
4/25/2004 16:25 84.38 17.04 8.1
4/25/2004 16:55 84.38 16.18 7.8
4/25/2004 17:25 82.24 14.6 7.8
4/25/2004 17:55 80.82 15.5 8.5
4/25/2004 18:25 80.12 14.98 8.5
4/25/2004 18:55 79.41 16.02 9.1
4/25/2004 19:25 78.71 15.48 9.1
4/25/2004 19:55 75.92 15.98 10.2
4/25/2004 20:25 74.53 17.28 11.3
4/25/2004 20:55 73.15 18.36 12.4
4/25/2004 21:25 70.39 18.84 13.9
4/25/2004 21:55 69.02 18.42 14.3
4/25/2004 22:25 68.33 18.98 15
4/25/2004 22:55 66.96 19.66 16.2
4/25/2004 23:25 66.96 19.66 16.2
4/25/2004 23:55 65.59 19.68 17
4/26/2004 0:25 64.91 20.34 17.9
4/26/2004 0:55 66.28 19.12 16.2
4/26/2004 1:25 63.54 20.24 18.7
4/26/2004 1:55 62.85 21.24 20
4/26/2004 2:25 64.22 20.3 18.3
4/26/2004 2:55 63.54 20.24 18.7
4/26/2004 3:25 62.85 20.16 19.1
4/26/2004 3:55 62.17 21.6 20.8
4/26/2004 4:25 60.8 21.46 21.7
4/26/2004 4:55 60.11 22.76 23.5
4/26/2004 5:25 61.48 22.46 22.1
4/26/2004 5:55 61.48 23 22.6
4/26/2004 6:25 66.96 21.48 17.5
4/26/2004 6:55 80.12 18.26 9.8
4/26/2004 7:25 82.24 18.14 9.1
4/26/2004 7:55 83.67 17.62 8.5
4/26/2004 8:25 84.38 16.18 7.8
4/26/2004 8:55 85.83 18.1 8.1
4/26/2004 9:25 86.55 17.76 7.8
4/26/2004 9:55 86.55 16.86 7.5
4/26/2004 10:25 87.28 19.18 8.1
4/26/2004 10:55 88.74 20.26 8.1
4/26/2004 11:25 88.74 21.38 8.5
4/26/2004 11:55 89.48 22.76 8.8
4/26/2004 12:25 88.74 19.38 7.8
4/26/2004 12:55 91.71 19.68 7.2
4/26/2004 13:25 92.46 19.22 6.9
4/26/2004 13:55 93.21 14.96 5.6
4/26/2004 14:25 92.46 15.62 5.9
4/26/2004 14:55 93.97 15.48 5.6
4/26/2004 15:25 91.71 27 9.8
4/26/2004 15:55 90.22 29.32 11.3
4/26/2004 16:25 88.01 30.48 12.7
4/26/2004 16:55 86.55 31.56 13.9
4/26/2004 17:25 85.1 32.32 15
4/26/2004 17:55 82.95 31.88 15.8
4/26/2004 18:25 80.82 30.8 16.2
4/26/2004 18:55 79.41 30.26 16.6
4/26/2004 19:25 77.31 29.86 17.5
4/26/2004 19:55 75.22 29.26 18.3
4/26/2004 20:25 73.84 29.18 19.1
4/26/2004 20:55 72.46 29.18 20
4/26/2004 21:25 71.08 29.58 21.3
4/26/2004 21:55 70.39 29.46 21.7
4/26/2004 22:25 69.71 29.88 22.6
4/26/2004 22:55 69.02 29.3 22.6
4/26/2004 23:25 67.65 29.52 23.9
4/26/2004 23:55 66.96 28.94 23.9
4/27/2004 0:25 65.59 28.68 24.8
4/27/2004 0:55 64.91 29.9 26.7
4/27/2004 1:25 64.22 29.32 26.7
4/27/2004 1:55 64.91 29.44 26.2
4/27/2004 2:25 64.22 28.86 26.2
4/27/2004 2:55 63.54 29.1 27.1
4/27/2004 3:25 62.85 29.4 28.1
4/27/2004 3:55 62.17 28.8 28.1
4/27/2004 4:25 60.8 29.22 30
4/27/2004 4:55 62.17 29.16 28.5
4/27/2004 5:25 61.48 29.82 30
4/27/2004 5:55 62.17 28.8 28.1
4/27/2004 6:25 65.59 30.02 26.2
4/27/2004 6:55 71.77 32.04 23
4/27/2004 7:25 74.53 28.7 18.3
4/27/2004 7:55 76.62 27.42 16.2
4/27/2004 8:25 80.82 24.9 12.7
4/27/2004 8:55 84.38 24.86 11.3
4/27/2004 9:25 86.55 22.38 9.5
4/27/2004 9:55 88.01 24.2 9.8
4/27/2004 10:25 90.96 21 7.8
4/27/2004 10:55 90.96 21 7.8
4/27/2004 11:25 91.71 24.4 8.8
4/27/2004 11:55 93.21 22.66 7.8
4/27/2004 12:25 93.21 23.54 8.1
4/27/2004 12:55 92.46 24.96 8.8
4/27/2004 13:25 92.46 24.14 8.5
4/27/2004 13:55 91.71 25.22 9.1
4/27/2004 14:25 90.96 24.66 9.1
4/27/2004 14:55 90.96 24.66 9.1
4/27/2004 15:25 90.22 25.12 9.5
4/27/2004 15:55 89.48 23.54 9.1
4/27/2004 16:25 88.01 24.2 9.8
4/27/2004 16:55 85.83 23.52 10.2
4/27/2004 17:25 85.1 25.4 11.3
4/27/2004 17:55 82.95 25.2 12
4/27/2004 18:25 80.82 25.64 13.1
4/27/2004 18:55 78.71 25.4 13.9
4/27/2004 19:25 77.31 25.48 14.6
4/27/2004 19:55 75.92 25.64 15.4
4/27/2004 20:25 74.53 26.34 16.6
4/27/2004 20:55 73.15 26.5 17.5
4/27/2004 21:25 71.77 26.46 18.3
4/27/2004 21:55 71.08 26.92 19.1
4/27/2004 22:25 69.71 27.86 20.8
4/27/2004 22:55 69.02 27.86 21.3
4/27/2004 23:25 68.33 27.74 21.7
4/27/2004 23:55 67.65 28.16 22.6
4/28/2004 0:25 66.96 28 23
4/28/2004 0:55 65.59 27.78 23.9
4/28/2004 1:25 65.59 28.28 24.4
4/28/2004 1:55 64.91 27.72 24.4
4/28/2004 2:25 64.91 28.1 24.8
4/28/2004 2:55 64.22 28 25.3
4/28/2004 3:25 62.85 27.22 25.7
4/28/2004 3:55 62.85 28.16 26.7
4/28/2004 4:25 61.48 27.34 27.1
4/28/2004 4:55 62.17 27.56 26.7
4/28/2004 5:25 61.48 26.98 26.7
4/28/2004 5:55 62.17 28.8 28.1
4/28/2004 6:25 65.59 27.78 23.9
4/28/2004 6:55 71.77 29.08 20.4
4/28/2004 7:25 73.84 25.78 16.6
4/28/2004 7:55 75.92 23.2 13.9
4/28/2004 8:25 77.31 24.98 14.3
4/28/2004 8:55 79.41 25.96 13.9
4/28/2004 9:25 80.82 28.26 14.6
4/28/2004 9:55 82.95 29.44 14.3
4/28/2004 10:25 84.38 30.56 14.3
4/28/2004 10:55 85.1 35.44 17
4/28/2004 11:25 87.28 31.42 13.5
4/28/2004 11:55 87.28 35.96 16.2
4/28/2004 12:25 87.28 37.18 17
4/28/2004 12:55 87.28 29.34 12.4
4/28/2004 13:25 87.28 34.04 15
4/28/2004 13:55 87.28 33.36 14.6
4/28/2004 14:25 86.55 34.76 15.8
4/28/2004 14:55 85.83 34.18 15.8
4/28/2004 15:25 84.38 35.58 17.5
4/28/2004 15:55 82.24 36.56 19.5
4/28/2004 16:25 79.41 43.96 28.5
4/28/2004 16:55 75.22 45.56 34.8
4/28/2004 17:25 71.77 47.02 41.3
4/28/2004 17:55 67.65 47.82 49
4/28/2004 18:25 64.91 48.76 55.8
4/28/2004 18:55 62.85 48.74 59.9
4/28/2004 19:25 61.48 48.58 62.5
4/28/2004 19:55 60.11 49.36 67.6
4/28/2004 20:25 58.04 51.06 77.5
4/28/2004 20:55 57.35 50.74 78.5
4/28/2004 21:25 55.97 50.8 82.7
4/28/2004 21:55 55.28 50.28 83.2
4/28/2004 22:25 55.28 50.98 85.4
4/28/2004 22:55 54.58 50.02 84.5
4/28/2004 23:25 54.58 50.3 85.4
4/28/2004 23:55 53.89 50.02 86.7
4/29/2004 0:25 54.58 50.98 87.6
4/29/2004 0:55 54.58 50.86 87.2
4/29/2004 1:25 54.58 50.7 86.7
4/29/2004 1:55 54.58 50.7 86.7
4/29/2004 2:25 54.58 50.46 85.9
4/29/2004 2:55 54.58 50.46 85.9
4/29/2004 3:25 54.58 50.98 87.6
4/29/2004 3:55 53.89 50.3 87.6
4/29/2004 4:25 54.58 50.58 86.3
4/29/2004 4:55 53.89 49.76 85.9
4/29/2004 5:25 53.89 50.18 87.2
4/29/2004 5:55 54.58 50.02 84.5
4/29/2004 6:25 55.97 50.34 81.3
4/29/2004 6:55 57.35 50.08 76.6
4/29/2004 7:25 58.04 50.22 75.1
4/29/2004 7:55 59.42 49.5 69.6
4/29/2004 8:25 60.8 49.82 67.1
4/29/2004 8:55 61.48 50.28 66.6
4/29/2004 9:25 61.48 50.08 66.1
4/29/2004 9:55 63.54 48.7 58.4
4/29/2004 10:25 65.59 48.38 53.7
4/29/2004 10:55 66.28 47.16 50.1
4/29/2004 11:25 66.96 48.06 50.6
4/29/2004 11:55 69.02 47.62 46.4
4/29/2004 12:25 69.02 47.04 45.4
4/29/2004 12:55 69.02 45.86 43.4
4/29/2004 13:25 70.39 46.8 42.9
4/29/2004 13:55 70.39 46.8 42.9
4/29/2004 14:25 69.71 47.08 44.4
4/29/2004 14:55 69.71 45.8 42.3
4/29/2004 15:25 69.71 45.8 42.3
4/29/2004 15:55 69.02 44.88 41.8
4/29/2004 16:25 68.33 43.3 40.3
4/29/2004 16:55 67.65 40.68 37.3
4/29/2004 17:25 65.59 44.84 47
4/29/2004 17:55 63.54 45.98 52.7
4/29/2004 18:25 60.8 47.02 60.4
4/29/2004 18:55 59.42 47.5 64.6
4/29/2004 19:25 57.35 48.12 71.2
4/29/2004 19:55 55.97 48.02 74.6
4/29/2004 20:25 54.58 48.52 79.9
4/29/2004 20:55 53.89 48.6 82.2
4/29/2004 21:25 53.19 48.24 83.2
4/29/2004 21:55 53.19 48.08 82.7
4/29/2004 22:25 52.49 47.68 83.6
4/29/2004 22:55 52.49 47.96 84.5
4/29/2004 23:25 51.79 47.28 84.5
4/29/2004 23:55 51.08 46.86 85.4
4/30/2004 0:25 51.08 46.74 85
4/30/2004 0:55 50.38 45.6 83.6
4/30/2004 1:25 50.38 46.44 86.3
4/30/2004 1:55 49.67 45.48 85.4
4/30/2004 2:25 48.96 44.94 85.9
4/30/2004 2:55 50.38 46.72 87.2
4/30/2004 3:25 51.79 47.56 85.4
4/30/2004 3:55 51.79 46.98 83.6
4/30/2004 4:25 51.79 46.86 83.2
4/30/2004 4:55 51.79 46.42 81.8
4/30/2004 5:25 51.79 46.7 82.7
4/30/2004 5:55 51.79 46.54 82.2
4/30/2004 6:25 53.89 47.54 79
4/30/2004 6:55 57.35 48.64 72.6
4/30/2004 7:25 57.35 46.94 68.1
4/30/2004 7:55 58.73 46.64 64.1
4/30/2004 8:25 61.48 46.54 57.9
4/30/2004 8:55 64.22 45.8 51.1
4/30/2004 9:25 66.96 45.76 46.4
4/30/2004 9:55 70.39 45.14 40.3
4/30/2004 10:25 74.53 34.34 23
4/30/2004 10:55 76.62 33.08 20.4
4/30/2004 11:25 77.31 25.48 14.6
4/30/2004 11:55 77.31 22.9 13.1
4/30/2004 12:25 78.01 21.36 12
4/30/2004 12:55 78.01 22.14 12.4
4/30/2004 13:25 78.71 24.7 13.5
4/30/2004 13:55 78.01 18.26 10.5
4/30/2004 14:25 77.31 19.42 11.3
4/30/2004 14:55 77.31 15.42 9.5
4/30/2004 15:25 76.62 14.9 9.5
4/30/2004 15:55 75.92 14.36 9.5
4/30/2004 16:25 75.92 14.36 9.5
4/30/2004 16:55 75.22 15.46 10.2
4/30/2004 17:25 73.84 15.92 10.9
4/30/2004 17:55 73.15 16.22 11.3
4/30/2004 18:25 71.77 16.52 12
4/30/2004 18:55 70.39 15.46 12
4/30/2004 19:25 69.02 15.68 12.7
4/30/2004 19:55 66.96 17.26 14.6
4/30/2004 20:25 65.59 16.78 15
4/30/2004 20:55 64.91 17.44 15.8
4/30/2004 21:25 63.54 18.02 17
4/30/2004 21:55 62.17 18.6 18.3
4/30/2004 22:25 62.17 18.6 18.3
4/30/2004 22:55 63.54 17.46 16.6
4/30/2004 23:25 63.54 17.46 16.6
4/30/2004 23:55 63.54 16.9 16.2